首页
METAR-TAF:

METAR-TAF

机场 :

Winnemucca Municipal Airport

温尼马卡, 内华达州, 美国

纬度: 40-54-07N, 经度: 117-48-26W, 海拔: 1311米

当前天气观测

该预报发布于1小时和8分钟前的15:56 UTC
静风
温度 27°C
湿度 16%
气压 1019 hPa
能見度: 16.1公里
天空无云

METAR: KWMC 241556Z AUTO 00000KT 10SM CLR 27/M01 A3009 RMK AO2 SLP135 T02721006

时间: 10:04 (17:04 UTC)

预报

该预报发布于5小时和44分钟前的11:20 UTC
预报有效从24日的 12点(UTC)到 25日的 12点(UTC)
风速8节,风向西转西南
能見度: 10公里
天空无云
从 24日的 1800点(UTC)
风速15节,风向西转西南,有时为25节阵风
能見度: 10公里
天空无云
从 25日的 0300点(UTC)
风速8节,风向西
能見度: 10公里
天空无云

TAF: KWMC 241120Z 2412/2512 24008KT P6SM SKC FM241800 24015G25KT P6SM SKC FM250300 26008KT P6SM SKC

超过4000个机场的气象观测和天气预报(METAR&TAF报告)。

可查询的气象台以黄色和红色小点在地图上表示。

将鼠标移到小点上方,可查看气象台名称。

然后点击查看天气观测和预报。

如需切换地图:点击带黑十字的绿色按钮放大地图;点击带横线的绿色按钮缩小地图;或者点击绿色箭头查看邻近地区的地图。


METAR-TAF: